Archival Weather

Chicago/Rockford Intl

Rockford, Illinois (KRFD)

Report from: Friday, February 3, 2023 1:54 AM CST
Current time: Tuesday, June 25, 2024 3:37 AM CDT

Current weather – Weather history – Daily summaries
Weather forecast

Temperature-15.6°C (3.9°F)
Wind chill-25.7°C (-14.3°F)
Dew point-23.9°C (-11.0°F)
Winds 13 kts (6.7 m/s, 15 mph) North (350°)
Visibility10 mi. (16.1 km)
Clouds Sky clear
Altimeter30.49 in.Hg (1033 mB)
Relative humidity49 %
Density altitude-4,566 ft. (-1,392 m)
Sea-level pressure103.4 kPa (1034 mB, 30.53 in.Hg)
Remarks Automated weather observing station with precipitation discriminator
Flight conditions Visual Meteorological Conditions
Raw dataKRFD 030754Z 35013KT 10SM CLR M16/M24 A3049 RMK AO2 SLP339 T11561239
An unhandled exception has occurred. See browser dev tools for details. Reload 🗙